createdAt,value
2022-10-13T07:51:58.082Z,38.83
2022-10-13T07:54:30.243Z,40.29
2022-10-13T07:56:58.389Z,39.23
2022-10-13T07:59:26.709Z,38.68
2022-10-13T08:01:54.752Z,37.92
2022-10-13T08:04:22.403Z,37.78
2022-10-13T08:06:50.015Z,38.53
2022-10-13T08:09:17.440Z,37.77
2022-10-13T08:11:45.627Z,37.55
2022-10-13T08:14:14.286Z,37.59
2022-10-13T08:16:48.691Z,36.40
2022-10-13T08:19:22.295Z,36.77
2022-10-13T08:21:58.113Z,36.98
2022-10-13T08:24:28.679Z,37.10
2022-10-13T08:26:56.695Z,36.73
2022-10-13T08:29:24.648Z,36.30
2022-10-13T08:31:54.359Z,36.54
2022-10-13T08:34:24.789Z,35.42
2022-10-13T08:36:54.893Z,35.53
2022-10-13T08:39:24.568Z,35.37
2022-10-13T08:41:53.518Z,34.33
2022-10-13T08:45:21.861Z,34.69
2022-10-13T08:47:37.881Z,34.76
2022-10-13T08:50:15.645Z,34.54
2022-10-13T08:52:50.607Z,33.97
2022-10-13T08:55:25.090Z,32.89
2022-10-13T08:57:53.316Z,34.00
2022-10-13T09:00:27.287Z,34.22
2022-10-13T09:03:02.100Z,33.97
2022-10-13T09:05:47.621Z,31.78
2022-10-13T09:08:21.109Z,32.87
2022-10-13T09:10:50.939Z,33.18
2022-10-13T09:13:22.960Z,32.83
2022-10-13T09:15:51.719Z,33.00
2022-10-13T09:18:19.611Z,32.39
2022-10-13T09:20:47.275Z,32.80
2022-10-13T09:23:14.660Z,32.11
2022-10-13T09:25:48.807Z,32.24
2022-10-13T09:28:30.603Z,31.70
2022-10-13T09:31:11.623Z,30.04
2022-10-13T09:33:41.852Z,31.69
2022-10-13T09:36:14.701Z,30.93
2022-10-13T09:39:05.663Z,30.84
2022-10-13T09:41:35.719Z,31.07
2022-10-13T09:44:12.975Z,31.37
2022-10-13T09:46:49.205Z,29.77
2022-10-13T09:49:38.297Z,30.01
2022-10-13T09:52:19.664Z,29.41
2022-10-13T09:54:52.305Z,29.83
2022-10-13T09:57:46.105Z,29.69
2022-10-13T10:00:14.953Z,28.96
2022-10-13T10:02:49.580Z,28.63
2022-10-13T10:05:26.653Z,29.50
2022-10-13T10:08:14.531Z,29.03
2022-10-13T10:10:42.986Z,29.58
2022-10-13T10:13:12.792Z,29.83
2022-10-13T10:15:57.353Z,29.28
2022-10-13T10:18:32.954Z,29.62
2022-10-13T10:21:11.063Z,30.13
2022-10-13T10:23:47.759Z,30.10
2022-10-13T10:26:30.232Z,30.39
2022-10-13T10:29:43.307Z,30.22
2022-10-13T10:32:41.047Z,31.47
2022-10-13T10:35:38.981Z,31.77
2022-10-13T10:38:35.825Z,31.79
2022-10-13T10:41:44.887Z,32.45
2022-10-13T10:44:29.964Z,32.93
2022-10-13T10:47:03.088Z,32.90
2022-10-13T10:49:36.730Z,33.20
2022-10-13T10:52:08.959Z,33.28
2022-10-13T10:54:52.234Z,33.16
2022-10-13T10:57:33.619Z,33.22
2022-10-13T11:00:13.960Z,33.36
2022-10-13T11:03:08.058Z,33.96
2022-10-13T11:06:00.199Z,34.15
2022-10-13T11:08:41.702Z,34.53
2022-10-13T11:11:29.267Z,34.99
2022-10-13T11:13:58.047Z,35.14
2022-10-13T11:16:38.419Z,35.46
2022-10-13T11:19:32.766Z,35.39
2022-10-13T11:22:03.250Z,35.79
2022-10-13T11:24:39.615Z,36.13
2022-10-13T11:27:14.711Z,36.58
2022-10-13T11:29:45.093Z,37.12
2022-10-13T11:32:42.197Z,37.33
2022-10-13T11:35:12.968Z,37.50
2022-10-13T11:38:09.261Z,38.50
2022-10-13T11:41:03.388Z,38.18
2022-10-13T11:43:45.118Z,38.51
2022-10-13T11:46:35.508Z,38.81
2022-10-13T11:49:18.805Z,39.16
2022-10-13T11:52:25.849Z,39.13
2022-10-13T11:55:10.904Z,39.33
2022-10-13T11:57:38.308Z,39.26
2022-10-13T12:00:13.435Z,39.44
2022-10-13T12:02:49.627Z,39.74
2022-10-13T12:05:28.455Z,39.80
2022-10-13T12:08:01.287Z,39.81
2022-10-13T12:10:35.788Z,39.96
2022-10-13T12:13:05.463Z,39.84
2022-10-13T12:15:37.020Z,40.00
2022-10-13T12:18:20.222Z,40.31
2022-10-13T12:20:55.926Z,40.81
2022-10-13T12:23:23.479Z,40.73
2022-10-13T12:25:57.421Z,41.05
2022-10-13T12:28:28.272Z,41.20
2022-10-13T12:30:58.455Z,41.45
2022-10-13T12:33:32.611Z,41.88
2022-10-13T12:36:20.190Z,42.28
2022-10-13T12:38:53.457Z,42.39
2022-10-13T12:41:35.944Z,42.22
2022-10-13T12:44:06.737Z,42.20
2022-10-13T12:46:49.467Z,42.40
2022-10-13T12:49:18.302Z,42.38
2022-10-13T12:51:48.593Z,42.55
2022-10-13T12:54:30.986Z,42.53
2022-10-13T12:57:02.330Z,42.55
2022-10-13T12:59:31.892Z,42.71
2022-10-13T13:02:02.347Z,42.88
2022-10-13T13:04:39.909Z,43.08
2022-10-13T13:07:28.788Z,42.99
2022-10-13T13:10:08.757Z,43.26
2022-10-13T13:12:37.556Z,43.34
2022-10-13T13:15:26.233Z,43.69
2022-10-13T13:17:59.247Z,43.63
2022-10-13T13:20:30.124Z,43.87
2022-10-13T13:22:57.871Z,44.04
2022-10-13T13:25:26.198Z,44.16
2022-10-13T13:27:56.945Z,44.16
2022-10-13T13:30:25.300Z,44.44
2022-10-13T13:32:52.784Z,44.56
2022-10-13T13:35:20.264Z,44.58
2022-10-13T13:37:50.885Z,44.81
2022-10-13T13:40:24.477Z,44.72
2022-10-13T13:42:56.313Z,44.96
2022-10-13T13:45:28.406Z,44.76
2022-10-13T13:48:00.781Z,45.14
2022-10-13T13:50:34.728Z,45.09
2022-10-13T13:53:02.517Z,45.09
2022-10-13T13:55:30.649Z,45.42
2022-10-13T13:57:58.979Z,45.38
2022-10-13T14:00:26.474Z,45.73
2022-10-13T14:02:59.471Z,45.76
2022-10-13T14:05:27.629Z,46.17
2022-10-13T14:07:59.356Z,46.36
2022-10-13T14:10:27.213Z,46.54
2022-10-13T14:12:54.684Z,46.47
2022-10-13T14:15:25.777Z,46.67
2022-10-13T14:17:56.513Z,47.16
2022-10-13T14:20:24.501Z,46.84
2022-10-13T14:22:51.959Z,47.14
2022-10-13T14:25:19.607Z,47.34
2022-10-13T14:27:47.273Z,47.24
2022-10-13T14:30:15.329Z,47.81
2022-10-13T14:32:43.069Z,48.16
2022-10-13T14:35:10.951Z,48.24
2022-10-13T14:37:39.259Z,48.21
2022-10-13T14:40:07.463Z,48.15
2022-10-13T14:42:34.900Z,48.89
2022-10-13T14:45:06.753Z,48.81
2022-10-13T14:47:34.320Z,49.32
2022-10-13T14:50:02.446Z,49.34
2022-10-13T14:52:30.189Z,49.21
2022-10-13T14:54:57.766Z,49.66
2022-10-13T14:57:25.323Z,50.20
2022-10-13T14:59:53.667Z,50.18
2022-10-13T15:02:22.430Z,50.48
2022-10-13T15:04:54.700Z,50.54
2022-10-13T15:07:22.535Z,50.62
2022-10-13T15:10:04.267Z,50.67
2022-10-13T15:12:33.395Z,50.85
2022-10-13T15:15:00.869Z,51.53
2022-10-13T15:17:31.191Z,51.34
2022-10-13T15:19:58.647Z,51.70
2022-10-13T15:22:29.005Z,51.56
2022-10-13T15:24:58.776Z,52.09
2022-10-13T15:27:26.185Z,52.20
2022-10-13T15:29:53.632Z,52.18
2022-10-13T15:32:22.048Z,52.56
2022-10-13T15:34:56.238Z,52.26
2022-10-13T15:37:25.454Z,52.25
2022-10-13T15:39:57.065Z,52.47
2022-10-13T15:42:25.087Z,52.99
2022-10-13T15:45:12.530Z,53.08
2022-10-13T15:47:40.033Z,52.61
2022-10-13T15:50:08.922Z,53.14
2022-10-13T15:52:43.934Z,52.98
2022-10-13T15:55:12.281Z,52.77
2022-10-13T15:57:40.759Z,52.53
2022-10-13T16:00:13.907Z,53.42
2022-10-13T16:02:43.269Z,53.71
2022-10-13T16:05:13.962Z,53.58
2022-10-13T16:07:41.901Z,53.81
2022-10-13T16:10:12.548Z,54.18
2022-10-13T16:12:40.234Z,54.09
2022-10-13T16:15:08.583Z,54.03
2022-10-13T16:17:36.430Z,54.20
2022-10-13T16:20:05.659Z,54.20
2022-10-13T16:22:33.353Z,54.49
2022-10-13T16:25:00.939Z,54.53
2022-10-13T16:27:28.466Z,54.21
2022-10-13T16:29:55.980Z,54.34
2022-10-13T16:32:23.511Z,54.91
2022-10-13T16:34:51.093Z,54.78
2022-10-13T16:37:20.567Z,55.18
2022-10-13T16:39:51.702Z,55.29
2022-10-13T16:42:19.824Z,55.38
2022-10-13T16:44:47.315Z,55.41
2022-10-13T16:47:18.209Z,55.51
2022-10-13T16:49:46.694Z,55.97
2022-10-13T16:52:15.972Z,56.04
2022-10-13T16:54:44.533Z,56.42
2022-10-13T16:57:12.376Z,56.00
2022-10-13T16:59:39.914Z,56.79
2022-10-13T17:02:07.331Z,56.28
2022-10-13T17:04:37.923Z,56.96
2022-10-13T17:07:05.346Z,56.88
2022-10-13T17:09:32.772Z,56.90
2022-10-13T17:12:00.780Z,57.36
2022-10-13T17:14:28.303Z,57.32
2022-10-13T17:16:57.998Z,57.30
2022-10-13T17:19:26.183Z,57.77
2022-10-13T17:21:53.644Z,57.63
2022-10-13T17:24:21.088Z,57.77
2022-10-13T17:26:49.856Z,58.27
2022-10-13T17:29:17.729Z,58.30
2022-10-13T17:31:45.918Z,58.76
2022-10-13T17:34:13.453Z,59.39
2022-10-13T17:36:40.862Z,59.59
2022-10-13T17:39:12.325Z,59.43
2022-10-13T17:41:43.486Z,60.23
2022-10-13T17:44:11.877Z,59.97
2022-10-13T17:46:39.998Z,60.39
2022-10-13T17:49:10.094Z,60.13
2022-10-13T17:51:38.195Z,60.86
2022-10-13T17:54:07.432Z,61.32
2022-10-13T17:56:36.603Z,61.10
2022-10-13T17:59:04.626Z,61.14
2022-10-13T18:01:34.456Z,61.62
2022-10-13T18:04:07.665Z,61.57
2022-10-13T18:06:40.764Z,61.88
2022-10-13T18:09:14.851Z,61.95
2022-10-13T18:11:49.811Z,62.05
2022-10-13T18:14:23.757Z,61.95
2022-10-13T18:16:52.605Z,61.94
2022-10-13T18:19:21.726Z,62.14
2022-10-13T18:21:49.604Z,61.82
2022-10-13T18:24:17.446Z,62.09
2022-10-13T18:26:46.297Z,62.27
2022-10-13T18:29:13.941Z,62.47
2022-10-13T18:31:41.880Z,62.29
2022-10-13T18:34:13.270Z,62.97
2022-10-13T18:36:44.342Z,62.55
2022-10-13T18:39:19.880Z,62.86
2022-10-13T18:41:49.781Z,62.80
2022-10-13T18:44:17.881Z,62.53
2022-10-13T18:46:45.573Z,63.05
2022-10-13T18:49:14.799Z,63.00
2022-10-13T18:51:43.777Z,62.64
2022-10-13T18:54:11.358Z,62.84
2022-10-13T18:56:39.315Z,63.21
2022-10-13T18:59:07.862Z,62.60
2022-10-13T19:01:38.190Z,62.91
2022-10-13T19:04:06.332Z,63.08
2022-10-13T19:06:34.108Z,62.89
2022-10-13T19:09:05.191Z,63.13
2022-10-13T19:11:36.453Z,62.79
2022-10-13T19:14:05.962Z,63.35
2022-10-13T19:16:36.873Z,63.37
2022-10-13T19:19:04.451Z,63.19
2022-10-13T19:21:32.938Z,63.33
2022-10-13T19:24:01.561Z,63.11
2022-10-13T19:26:37.552Z,63.37
2022-10-13T19:29:13.260Z,63.35
2022-10-13T19:31:41.887Z,63.64
2022-10-13T19:34:12.957Z,63.27
2022-10-13T19:36:43.522Z,63.68
2022-10-13T19:39:29.157Z,63.80
2022-10-13T19:42:00.520Z,63.12
2022-10-13T19:44:28.003Z,63.29
2022-10-13T19:46:55.489Z,63.46
2022-10-13T19:49:26.664Z,63.67
2022-10-13T19:51:56.752Z,63.90
2022-10-13T19:54:24.665Z,63.16
2022-10-13T19:56:55.360Z,63.28
2022-10-13T19:59:24.360Z,63.69
2022-10-13T20:01:51.812Z,63.57
2022-10-13T20:04:20.756Z,63.59
2022-10-13T20:06:49.771Z,63.76
2022-10-13T20:09:18.883Z,63.63
2022-10-13T20:11:50.072Z,63.61
2022-10-13T20:14:18.103Z,63.85
2022-10-13T20:16:45.622Z,63.87
2022-10-13T20:19:17.889Z,63.63
2022-10-13T20:21:48.211Z,63.77
2022-10-13T20:24:16.186Z,63.73
2022-10-13T20:26:43.755Z,63.94
2022-10-13T20:29:11.301Z,64.29
2022-10-13T20:31:39.040Z,64.40
2022-10-13T20:34:06.714Z,64.23
2022-10-13T20:36:38.610Z,64.82
2022-10-13T20:39:07.352Z,64.42
2022-10-13T20:41:35.071Z,64.34
2022-10-13T20:44:03.168Z,64.82
2022-10-13T20:46:34.381Z,64.78
2022-10-13T20:49:17.103Z,65.24
2022-10-13T20:51:45.217Z,65.02
2022-10-13T20:54:14.821Z,65.11
2022-10-13T20:56:45.781Z,65.35
2022-10-13T20:59:14.949Z,65.00
2022-10-13T21:01:42.656Z,65.73
2022-10-13T21:04:14.505Z,65.00
2022-10-13T21:06:42.568Z,65.28
2022-10-13T21:09:10.769Z,65.62
2022-10-13T21:11:40.913Z,65.84
2022-10-13T21:14:09.927Z,65.63
2022-10-13T21:16:40.454Z,65.67
2022-10-13T21:19:11.855Z,65.75
2022-10-13T21:21:39.393Z,65.82
2022-10-13T21:24:08.590Z,66.50
2022-10-13T21:26:37.127Z,66.35
2022-10-13T21:29:04.896Z,65.88
2022-10-13T21:31:34.432Z,65.92
2022-10-13T21:34:01.925Z,66.23
2022-10-13T21:36:31.926Z,66.01
2022-10-13T21:39:02.125Z,66.71
2022-10-13T21:41:30.099Z,66.39
2022-10-13T21:43:59.309Z,66.53
2022-10-13T21:46:33.023Z,66.66
2022-10-13T21:49:06.459Z,66.70
2022-10-13T21:51:38.123Z,66.80
2022-10-13T21:54:09.182Z,66.35
2022-10-13T21:56:37.714Z,66.39
2022-10-13T21:59:06.712Z,66.62
2022-10-13T22:01:37.312Z,66.54
2022-10-13T22:04:12.252Z,66.79
2022-10-13T22:06:40.008Z,66.86
2022-10-13T22:09:08.118Z,66.64
2022-10-13T22:11:37.302Z,66.84
2022-10-13T22:14:11.457Z,67.23
2022-10-13T22:16:45.789Z,67.50
2022-10-13T22:19:14.064Z,67.26
2022-10-13T22:21:44.372Z,67.14
2022-10-13T22:24:14.960Z,67.30
2022-10-13T22:26:43.855Z,67.29
2022-10-13T22:29:14.479Z,67.50
2022-10-13T22:31:43.601Z,67.51
2022-10-13T22:34:13.178Z,68.03
2022-10-13T22:36:44.430Z,68.38
2022-10-13T22:39:15.466Z,67.94
2022-10-13T22:41:43.105Z,68.04
2022-10-13T22:44:12.117Z,67.89
2022-10-13T22:46:40.736Z,68.54
2022-10-13T22:49:13.604Z,68.33
2022-10-13T22:51:41.147Z,68.33
2022-10-13T22:54:09.659Z,68.65
2022-10-13T22:56:37.277Z,68.72
2022-10-13T22:59:08.425Z,68.51
2022-10-13T23:01:36.583Z,68.55
2022-10-13T23:04:04.220Z,69.03
2022-10-13T23:06:34.702Z,68.87
2022-10-13T23:09:08.036Z,68.78
2022-10-13T23:11:36.147Z,68.90
2022-10-13T23:14:06.447Z,68.56
2022-10-13T23:16:34.426Z,68.72
2022-10-13T23:19:02.049Z,68.70
2022-10-13T23:21:30.892Z,68.65
2022-10-13T23:24:01.371Z,69.18
2022-10-13T23:26:30.149Z,68.69
2022-10-13T23:28:58.388Z,68.63
2022-10-13T23:31:27.871Z,69.02
2022-10-13T23:33:55.895Z,69.01
2022-10-13T23:36:27.332Z,69.43
2022-10-13T23:39:09.699Z,69.07
2022-10-13T23:41:37.801Z,69.20
2022-10-13T23:44:05.410Z,69.62
2022-10-13T23:46:32.914Z,69.72
2022-10-13T23:49:00.362Z,69.80
2022-10-13T23:51:27.866Z,69.56
2022-10-13T23:53:56.411Z,70.04
2022-10-13T23:56:24.351Z,69.79
2022-10-13T23:58:52.095Z,69.82
